Terminal Aerodrome Forecast
Issued by NWS Twin Cities, MN

Home | Current Version | Previous Version | Graphics & Text | Print | Product List | Glossary On
Versions: 1 2 3 4 5 6 7 8 9 10 11 12 13 14 15 16 17 18 19 20 21 22 23 24 25 26
000
FTUS43 KMPX 212103 AAA
TAFMSP
TAF AMD
KMSP 212103Z 2121/2224 28013G22KT P6SM OVC015
     FM212300 29011KT P6SM OVC018
     FM220300 28009KT P6SM OVC025
      TEMPO 2203/2207 4SM -DZ BR OVC010
     FM221000 25004KT P6SM BKN035
     FM221500 28009KT P6SM SCT100
     FM222200 31008KT P6SM BKN050=

USA.gov is the U.S. government's official web portal to all federal, state and local government web resources and services.